Metar Cercanos

 

LEPA - Palma De Mallorc, Spain
Distance from station: ONO 38km
Actualización: 23/01/2018 00:30
Despejado
Despejado
 Viento del varies
Viento: varies 4 km/h
Temperatura: 9°C
Rocío: 9°C
Humedad: 100%
Barómetro: 1023 hPa
Resumen: Despejado
Visibility: greater than 10 km
2018/01/22 23:30 LEPA 222330Z VRB02KT CAVOK 09/09 Q1023 NOSIG
LEMH - Mahon/Menorca Is, Spain
Distance from station: ENE 105km
Actualización: 23/01/2018 00:30
Despejado
Despejado
 Viento del N
Viento: N 4 km/h
Temperatura: 11°C
Rocío: 9°C
Humedad: 88%
Barómetro: 1023 hPa
Clouds: Despejado
Visibility: 10 km
2018/01/22 23:30 LEMH 222330Z AUTO 36002KT 9999 NCD 11/09 Q1023
 
LEIB - Ibiza/Es Codola, Spain
Distance from station: OSO 165km
Actualización: 23/01/2018 00:00
Despejado
Despejado
 Viento del O
Viento: O 7 km/h
Temperatura: 9°C
Sensación frio: 8°C
Rocío: 7°C
Humedad: 87%
Barómetro: 1024 hPa
Resumen: Despejado
Visibility: greater than 10 km
2018/01/22 23:00 LEIB 222300Z 26004KT 240V330 CAVOK 09/07 Q1024 NOSIG
LEBL - Barcelona Airpor, Spain
Distance from station: NNO 225km
Actualización: 23/01/2018 00:30
Despejado
Despejado
 Viento del NNO
Viento: NNO 11 km/h
Temperatura: 11°C
Rocío: 7°C
Humedad: 77%
Barómetro: 1024 hPa
Resumen: Despejado
Visibility: greater than 10 km
2018/01/22 23:30 LEBL 222330Z 34006KT CAVOK 11/07 Q1024 NOSIG
 
LEVC - Valencia (civ/Mi, Spain
Distance from station: NO 188km
Actualización: 23/01/2018 00:30
Despejado
Despejado
 Viento del O
Viento: O 7 km/h
Temperatura: 11°C
Rocío: 5°C
Humedad: 67%
Barómetro: 1025 hPa
Resumen: Despejado
Visibility: greater than 10 km
2018/01/22 23:30 LEVC 222330Z 27004KT CAVOK 11/05 Q1025 NOSIG
LEGE - Gerona/Costa Bra, Spain
Distance from station: N 276km
Actualización: 23/01/2018 00:30
Despejado
Despejado
 Viento del O
Viento: O 6 km/h
Temperatura: 7°C
Rocío: 7°C
Humedad: 100%
Barómetro: 1023 hPa
Resumen: Despejado
Visibility: greater than 10 km
2018/01/22 23:30 LEGE 222330Z 26003KT 220V280 CAVOK 07/07 Q1023
 
LEAL - Alicante/El Alte, Spain
Distance from station: OSO 344km
Actualización: 23/01/2018 00:30
Despejado
Despejado
 Viento del ONO
Viento: ONO 7 km/h
Temperatura: 13°C
Rocío: 4°C
Humedad: 55%
Barómetro: 1024 hPa
Resumen: Despejado
Visibility: greater than 10 km
2018/01/22 23:30 LEAL 222330Z 30004KT CAVOK 13/04 Q1024 NOSIG
LEAM - Almeria Airport, Spain
Distance from station: SSO 56km
Actualización: 23/01/2018 00:30
Despejado
Despejado
 Viento del NE
Viento: NE 7 km/h
Temperatura: 12°C
Rocío: 10°C
Humedad: 88%
Barómetro: 1024 hPa
Clouds: Despejado
Visibility: 10 km
2018/01/22 23:30 LEAM 222330Z AUTO 04004KT 9999 NCD 12/10 Q1024
 
LEZG - Zaragoza (mil/Ci, Spain
Distance from station: NO 431km
Actualización: 23/01/2018 00:30
Parcialmente nuboso
Parcialmente nuboso
 Viento del O
Viento: O 26 km/h
Temperatura: 12°C
Rocío: 8°C
Humedad: 77%
Barómetro: 1028 hPa
Clouds: Parcialmente nuboso
Visibility: 10 km
Cloud details: Parcialmente nuboso 1219 m
2018/01/22 23:30 LEZG 222330Z 27014KT 9999 SCT040 12/08 Q1028
LEMD - Madrid/Barajas, Spain
Distance from station: ONO 234km
Actualización: 23/01/2018 00:30
Despejado
Despejado
 Viento del NNO
Viento: NNO 7 km/h
Temperatura: 4°C
Sensación frio: 2°C
Rocío: 3°C
Humedad: 93%
Barómetro: 1029 hPa
Resumen: Despejado
Visibility: greater than 10 km
2018/01/22 23:30 LEMD 222330Z 34004KT CAVOK 04/03 Q1029 NOSIG
 
LEGR - Granada Airport, Spain
Distance from station: OSO 62km
Actualización: 23/01/2018 00:30
Despejado
Despejado
 Viento del SO
Viento: SO 6 km/h
Temperatura: 5°C
Rocío: 4°C
Humedad: 93%
Barómetro: 1028 hPa
Clouds: Despejado
Visibility: 10 km
2018/01/22 23:30 LEGR 222330Z AUTO 23003KT 9999 NCD 05/04 Q1028
LEMG - Malaga (civ/Mil), Spain
Distance from station: OSO 227km
Actualización: 23/01/2018 00:30
Despejado
Despejado
 Viento del O
Viento: O 24 km/h
Temperatura: 18°C
Rocío: 4°C
Humedad: 40%
Barómetro: 1025 hPa
Resumen: Despejado
Visibility: greater than 10 km
2018/01/22 23:30 LEMG 222330Z 28013KT CAVOK 18/04 Q1025 NOSIG
 
LEZL - Sevilla (civ/Mil, Spain
Distance from station: S 318km
Actualización: 23/01/2018 00:30
Despejado
Despejado
 Viento del NE
Viento: NE 9 km/h
Temperatura: 11°C
Rocío: 9°C
Humedad: 88%
Barómetro: 1027 hPa
Resumen: Despejado
Visibility: greater than 10 km
2018/01/22 23:30 LEZL 222330Z 04005KT CAVOK 11/09 Q1027 NOSIG
LEVT - Vitoria, Spain
Distance from station: NO 226km
Actualización: 23/01/2018 00:30
Light drizzle, Muy nuboso
Light drizzle, Muy nuboso
 Viento del SO
Viento: SO 6 km/h
Temperatura: 9°C
Rocío: 9°C
Humedad: 100%
Barómetro: 1030 hPa
Resumen: Light Drizzle
Clouds: Muy nuboso
Visibility: 4 km
Cloud details: Few Clouds 244 m
Parcialmente nuboso 549 m
Muy nuboso 853 m
2018/01/22 23:30 LEVT 222330Z 23003KT 4000 -DZ FEW008 SCT018 BKN028 09/09 Q1030
 
LEBB - Bilbao/Sondica, Spain
Distance from station: NNO 235km
Actualización: 23/01/2018 00:30
Mist, Muy nuboso
Mist, Muy nuboso
 Viento del calm
Viento: Calma
Temperatura: 12°C
Rocío: 12°C
Humedad: 100%
Barómetro: 1030 hPa
Resumen: Mist
Clouds: Muy nuboso
Visibility: 5 km
Cloud details: Parcialmente nuboso 213 m
Muy nuboso 579 m
2018/01/22 23:30 LEBB 222330Z AUTO 00000KT 5000 BR SCT007/// BKN019/// 12/12 Q1030
LESO - San Sebastian/Fu, Spain
Distance from station: N 231km
Actualización: 23/01/2018 00:30
Lluvia débil, Mist, Cubierto
Lluvia débil, Mist, Cubierto
 Viento del SO
Viento: SO 6 km/h
Temperatura: 13°C
Rocío: 13°C
Humedad: 100%
Barómetro: 1029 hPa
Resumen: Lluvia débil, Mist
Clouds: Cubierto
Visibility: 3 km
Cloud details: Cubierto 122 m
2018/01/22 23:30 LESO 222330Z AUTO 22003KT 190V260 2800 -RA BR VV004 13/13 Q1029
 
LEVD - Valladolid(Mil/C, Spain
Distance from station: ONO 239km
Actualización: 22/01/2018 21:30
NOT Current
Despejado
Despejado
 Viento del NE
Viento: NE 9 km/h
Temperatura: 4°C
Sensación frio: 2°C
Rocío: 3°C
Humedad: 93%
Barómetro: 1030 hPa
Resumen: Despejado
Visibility: greater than 10 km
2018/01/22 20:30 LEVD 222030Z 04005KT CAVOK 04/03 Q1030
LESA - Salamanca (civ/M, Spain
Distance from station: ONO 349km
Actualización: 22/01/2018 21:00
NOT Current
Despejado
Despejado
 Viento del E
Viento: E 6 km/h
Temperatura: 5°C
Rocío: 4°C
Humedad: 93%
Barómetro: 1030 hPa
Resumen: Despejado
Visibility: greater than 10 km
2018/01/22 20:00 LESA 222000Z 08003KT CAVOK 05/04 Q1030
 
LEXJ - Santander/Paraya, Spain
Distance from station: NNO 247km
Actualización: 23/01/2018 00:30
Mist, Cubierto
Mist, Cubierto
 Viento del SO
Viento: SO 11 km/h
Temperatura: 14°C
Rocío: 12°C
Humedad: 88%
Barómetro: 1029 hPa
Resumen: Mist
Clouds: Cubierto
Visibility: 5 km
Cloud details: Cubierto 1189 m
2018/01/22 23:30 LEXJ 222330Z AUTO 22006KT 5000 BR OVC039/// 14/12 Q1029
LEAS - Asturias/Aviles, Spain
Distance from station: NO 214km
Actualización: 23/01/2018 00:30
Mist, Parcialmente nuboso
Mist, Parcialmente nuboso
 Viento del SO
Viento: SO 13 km/h
Temperatura: 13°C
Rocío: 7°C
Humedad: 67%
Barómetro: 1029 hPa
Resumen: Mist
Clouds: Parcialmente nuboso
Visibility: 6 km
Cloud details: Parcialmente nuboso 1463 m
2018/01/22 23:30 LEAS 222330Z AUTO 23007KT 6000 2300W BR SCT048 13/07 Q1029
 
LECO - La Coruna/Alvedr, Spain
Distance from station: ONO 222km
Actualización: 23/01/2018 00:30
Muy nuboso
Muy nuboso
 Viento del SO
Viento: SO 15 km/h
Temperatura: 13°C
Rocío: 11°C
Humedad: 88%
Barómetro: 1030 hPa
Clouds: Muy nuboso
Visibility: 10 km
Cloud details: Muy nuboso 1219 m
2018/01/22 23:30 LECO 222330Z 22008KT 9999 BKN040 13/11 Q1030 NOSIG
LEVX - Vigo/Peinador, Spain
Distance from station: O 214km
Actualización: 23/01/2018 00:30
Niebla, Cubierto
Niebla, Cubierto
 Viento del varies
Viento: varies 4 km/h
Temperatura: 11°C
Rocío: 11°C
Humedad: 100%
Barómetro: 1030 hPa
Resumen: Niebla
Clouds: Cubierto
Visibility: 0 km
Cloud details: Cubierto 30 m
2018/01/22 23:30 LEVX 222330Z VRB02KT 0100 R19/0600U R01/0300N FG VV001 11/11 Q1030 NOSIG